createdAt,value
2023-03-28T00:01:11.639Z,2.25
2023-03-28T00:03:40.287Z,1.73
2023-03-28T00:06:18.906Z,2.40
2023-03-28T00:08:47.242Z,1.85
2023-03-28T00:11:20.434Z,1.77
2023-03-28T00:14:00.721Z,2.22
2023-03-28T00:16:33.083Z,1.80
2023-03-28T00:19:09.835Z,2.03
2023-03-28T00:21:41.418Z,2.15
2023-03-28T00:24:14.668Z,2.35
2023-03-28T00:26:44.247Z,2.63
2023-03-28T00:29:20.659Z,2.00
2023-03-28T00:31:50.232Z,2.40
2023-03-28T00:34:17.934Z,2.30
2023-03-28T00:36:44.876Z,2.80
2023-03-28T00:39:13.323Z,2.13
2023-03-28T00:41:44.900Z,2.75
2023-03-28T00:44:47.267Z,2.78
2023-03-28T00:48:14.036Z,2.08
2023-03-28T00:50:48.490Z,2.00
2023-03-28T00:53:25.489Z,3.00
2023-03-28T00:56:04.093Z,2.83
2023-03-28T00:58:39.266Z,2.40
2023-03-28T01:01:07.100Z,2.40
2023-03-28T01:03:37.398Z,1.70
2023-03-28T01:06:06.514Z,2.30
2023-03-28T01:08:41.150Z,2.50
2023-03-28T01:11:11.372Z,2.40
2023-03-28T01:13:49.144Z,2.65
2023-03-28T01:16:19.922Z,2.38
2023-03-28T01:18:52.949Z,1.83
2023-03-28T01:22:08.112Z,2.67
2023-03-28T01:25:43.038Z,2.17
2023-03-28T01:28:50.637Z,2.03
2023-03-28T01:32:11.309Z,2.50
2023-03-28T01:35:08.537Z,2.30
2023-03-28T01:38:32.717Z,2.67
2023-03-28T01:41:33.609Z,2.70
2023-03-28T01:44:38.353Z,3.33
2023-03-28T01:47:57.079Z,2.58
2023-03-28T01:51:08.320Z,2.65
2023-03-28T01:53:51.872Z,2.53
2023-03-28T01:56:36.006Z,2.80
2023-03-28T01:59:39.022Z,3.15
2023-03-28T02:02:27.486Z,2.75
2023-03-28T02:05:00.355Z,3.22
2023-03-28T02:07:28.657Z,2.97
2023-03-28T02:09:58.810Z,3.10
2023-03-28T02:12:37.707Z,3.40
2023-03-28T02:15:13.724Z,3.20
2023-03-28T02:17:52.780Z,2.80
2023-03-28T02:20:27.912Z,3.13
2023-03-28T02:23:15.560Z,3.70
2023-03-28T02:25:42.537Z,4.47
2023-03-28T02:28:13.610Z,4.25
2023-03-28T02:30:40.603Z,3.60
2023-03-28T02:33:46.757Z,3.35
2023-03-28T02:36:57.355Z,4.30
2023-03-28T02:40:00.578Z,4.30
2023-03-28T02:42:55.839Z,4.07
2023-03-28T02:46:12.548Z,3.45
2023-03-28T02:49:22.913Z,4.13
2023-03-28T02:52:51.590Z,3.33
2023-03-28T02:55:58.112Z,3.55
2023-03-28T02:58:53.263Z,4.20
2023-03-28T03:01:25.218Z,4.50
2023-03-28T03:03:52.728Z,5.45
2023-03-28T03:06:19.709Z,4.53
2023-03-28T03:08:46.972Z,4.30
2023-03-28T03:11:14.222Z,4.03
2023-03-28T03:13:43.210Z,4.93
2023-03-28T03:16:10.991Z,6.05
2023-03-28T03:18:37.903Z,6.38
2023-03-28T03:21:05.086Z,4.38
2023-03-28T03:23:31.913Z,4.63
2023-03-28T03:25:58.989Z,4.43
2023-03-28T03:28:25.976Z,5.20
2023-03-28T03:30:53.355Z,4.45
2023-03-28T03:33:20.326Z,5.20
2023-03-28T03:35:47.520Z,5.82
2023-03-28T03:38:14.467Z,5.97
2023-03-28T03:40:41.461Z,7.30
2023-03-28T03:43:08.324Z,7.40
2023-03-28T03:45:35.448Z,6.32
2023-03-28T03:48:02.404Z,5.65
2023-03-28T03:50:29.540Z,6.30
2023-03-28T03:52:58.343Z,6.88
2023-03-28T03:55:26.517Z,6.20
2023-03-28T03:57:53.419Z,5.70
2023-03-28T04:00:20.617Z,6.45
2023-03-28T04:02:48.654Z,5.65
2023-03-28T04:05:15.994Z,5.72
2023-03-28T04:07:43.033Z,5.85
2023-03-28T04:10:10.733Z,6.40
2023-03-28T04:12:37.618Z,6.25
2023-03-28T04:15:07.044Z,5.93
2023-03-28T04:17:35.772Z,6.50
2023-03-28T04:20:11.395Z,6.03
2023-03-28T04:22:45.194Z,5.88
2023-03-28T04:25:13.719Z,5.35
2023-03-28T04:27:41.866Z,6.82
2023-03-28T04:30:10.993Z,5.43
2023-03-28T04:32:40.603Z,6.15
2023-03-28T04:35:08.715Z,5.45
2023-03-28T04:37:37.548Z,6.15
2023-03-28T04:40:12.601Z,5.53
2023-03-28T04:42:39.516Z,5.95
2023-03-28T04:45:08.540Z,5.20
2023-03-28T04:47:39.900Z,5.47
2023-03-28T04:50:11.093Z,6.45
2023-03-28T04:52:37.952Z,6.05
2023-03-28T04:55:06.319Z,5.45
2023-03-28T04:57:33.489Z,6.55
2023-03-28T05:00:00.566Z,6.47
2023-03-28T05:02:27.491Z,5.47
2023-03-28T05:04:54.403Z,5.75
2023-03-28T05:07:21.576Z,5.43
2023-03-28T05:09:48.455Z,5.57
2023-03-28T05:12:15.550Z,6.28
2023-03-28T05:14:42.789Z,6.13
2023-03-28T05:17:09.636Z,6.38
2023-03-28T05:19:36.488Z,5.53
2023-03-28T05:22:03.368Z,5.00
2023-03-28T05:24:30.274Z,6.57
2023-03-28T05:26:57.149Z,6.10
2023-03-28T05:29:24.354Z,5.63
2023-03-28T05:31:51.255Z,5.85
2023-03-28T05:34:18.111Z,6.03
2023-03-28T05:36:45.402Z,5.43
2023-03-28T05:39:12.292Z,5.97
2023-03-28T05:41:39.151Z,6.07
2023-03-28T05:44:06.014Z,5.97
2023-03-28T05:46:32.960Z,5.97
2023-03-28T05:48:59.814Z,5.05
2023-03-28T05:51:26.744Z,5.00
2023-03-28T05:53:53.674Z,5.05
2023-03-28T05:56:20.951Z,6.60
2023-03-28T05:58:48.341Z,4.85
2023-03-28T06:01:17.905Z,6.35
2023-03-28T06:03:45.699Z,5.57
2023-03-28T06:06:13.410Z,6.93
2023-03-28T06:08:40.583Z,4.53
2023-03-28T06:11:07.987Z,5.30
2023-03-28T06:13:34.893Z,5.38
2023-03-28T06:16:01.894Z,4.90
2023-03-28T06:18:29.021Z,5.88
2023-03-28T06:20:56.033Z,5.60
2023-03-28T06:23:23.916Z,6.00
2023-03-28T06:25:51.148Z,4.90
2023-03-28T06:28:18.050Z,5.53
2023-03-28T06:30:50.169Z,5.00
2023-03-28T06:33:17.281Z,5.60
2023-03-28T06:35:44.480Z,4.25
2023-03-28T06:38:11.491Z,3.97
2023-03-28T06:40:38.432Z,3.92
2023-03-28T06:43:05.435Z,4.10
2023-03-28T06:45:32.308Z,3.80
2023-03-28T06:47:59.265Z,4.68
2023-03-28T06:50:26.181Z,4.72
2023-03-28T06:52:53.142Z,4.68
2023-03-28T06:55:20.047Z,3.58
2023-03-28T06:57:46.891Z,5.97
2023-03-28T07:00:14.971Z,4.20
2023-03-28T07:02:41.958Z,4.50
2023-03-28T07:05:09.363Z,3.83
2023-03-28T07:07:36.334Z,4.72
2023-03-28T07:10:03.565Z,3.35
2023-03-28T07:12:30.543Z,3.22
2023-03-28T07:14:57.418Z,3.25
2023-03-28T07:17:24.302Z,3.95
2023-03-28T07:19:53.501Z,4.47
2023-03-28T07:22:20.410Z,3.17
2023-03-28T07:24:47.272Z,3.47
2023-03-28T07:27:16.665Z,4.10
2023-03-28T07:29:44.154Z,3.50
2023-03-28T07:32:11.776Z,4.22
2023-03-28T07:34:38.789Z,3.05
2023-03-28T07:37:06.338Z,4.13
2023-03-28T07:39:34.358Z,3.90
2023-03-28T07:42:01.431Z,3.05
2023-03-28T07:44:28.320Z,3.53
2023-03-28T07:46:55.173Z,2.70
2023-03-28T07:49:22.093Z,3.20
2023-03-28T07:51:49.001Z,3.00
2023-03-28T07:54:17.789Z,3.17
2023-03-28T07:56:46.595Z,3.28
2023-03-28T07:59:14.624Z,2.67
2023-03-28T08:03:59.583Z,3.58
2023-03-28T08:06:32.427Z,3.10
2023-03-28T08:09:00.933Z,3.67
2023-03-28T08:11:28.175Z,3.00
2023-03-28T08:13:55.104Z,2.90
2023-03-28T08:16:22.769Z,2.25
2023-03-28T08:18:57.104Z,2.65
2023-03-28T08:21:31.023Z,2.50
2023-03-28T08:24:03.340Z,2.70
2023-03-28T08:26:30.779Z,3.15
2023-03-28T08:29:01.311Z,2.30
2023-03-28T08:31:29.851Z,3.15
2023-03-28T08:33:58.480Z,2.70
2023-03-28T08:36:27.950Z,2.33
2023-03-28T08:39:00.273Z,2.10
2023-03-28T08:41:46.877Z,2.33
2023-03-28T08:44:57.019Z,2.43
2023-03-28T08:47:33.094Z,2.13
2023-03-28T08:50:19.727Z,2.40
2023-03-28T08:52:47.676Z,2.25
2023-03-28T08:55:40.499Z,2.78
2023-03-28T08:58:23.145Z,1.50
2023-03-28T09:00:52.771Z,2.17
2023-03-28T09:03:24.399Z,2.38
2023-03-28T09:06:36.715Z,2.00
2023-03-28T09:09:39.078Z,2.20
2023-03-28T09:12:46.041Z,2.30
2023-03-28T09:15:33.677Z,1.60
2023-03-28T09:18:42.418Z,1.45
2023-03-28T09:21:45.608Z,2.37
2023-03-28T09:25:00.295Z,1.53
2023-03-28T09:28:02.210Z,1.85
2023-03-28T09:30:46.718Z,1.83
2023-03-28T09:33:39.089Z,2.28
2023-03-28T09:36:31.499Z,2.17
2023-03-28T09:39:18.450Z,2.28
2023-03-28T09:42:05.146Z,2.00
2023-03-28T09:45:17.130Z,1.50
2023-03-28T09:47:47.748Z,1.38
2023-03-28T09:50:18.908Z,1.50
2023-03-28T09:52:49.691Z,1.85
2023-03-28T09:55:22.202Z,1.40
2023-03-28T09:58:11.867Z,2.00
2023-03-28T10:00:51.939Z,1.88
2023-03-28T10:03:34.880Z,2.10
2023-03-28T10:06:27.648Z,1.60
2023-03-28T10:09:20.299Z,1.80
2023-03-28T10:11:55.124Z,1.60
2023-03-28T10:14:38.955Z,1.50
2023-03-28T10:17:17.526Z,1.83
2023-03-28T10:19:47.946Z,1.93
2023-03-28T10:22:27.278Z,1.43
2023-03-28T10:24:54.996Z,1.93
2023-03-28T10:27:37.404Z,1.43
2023-03-28T10:30:29.522Z,2.27
2023-03-28T10:33:30.461Z,2.03
2023-03-28T10:36:01.135Z,2.03
2023-03-28T10:38:47.272Z,4.03
2023-03-28T10:41:29.386Z,1.90
2023-03-28T10:43:57.437Z,2.20
2023-03-28T10:46:37.471Z,1.73
2023-03-28T10:49:14.292Z,1.30
2023-03-28T10:51:43.772Z,1.37
2023-03-28T10:54:33.940Z,1.83
2023-03-28T10:57:39.886Z,1.87
2023-03-28T11:00:34.122Z,2.60
2023-03-28T11:03:38.251Z,1.83
2023-03-28T11:07:15.627Z,1.93
2023-03-28T11:09:49.040Z,1.53
2023-03-28T11:13:06.591Z,2.13
2023-03-28T11:16:07.063Z,1.60
2023-03-28T11:19:19.744Z,1.40
2023-03-28T11:22:03.579Z,2.40
2023-03-28T11:25:00.858Z,1.70
2023-03-28T11:28:22.164Z,1.27
2023-03-28T11:30:58.346Z,2.30
2023-03-28T11:34:12.977Z,1.43
2023-03-28T11:37:07.345Z,2.00
2023-03-28T11:40:08.469Z,2.20
2023-03-28T11:42:54.617Z,1.70
2023-03-28T11:45:53.074Z,2.03
2023-03-28T11:48:54.814Z,1.77
2023-03-28T11:52:03.753Z,2.00
2023-03-28T11:55:10.797Z,1.90
2023-03-28T11:58:09.000Z,1.40
2023-03-28T12:01:11.680Z,1.80
2023-03-28T12:04:32.998Z,1.57
2023-03-28T12:07:22.129Z,2.40
2023-03-28T12:10:25.537Z,2.23
2023-03-28T12:13:16.684Z,2.40
2023-03-28T12:16:11.771Z,1.77
2023-03-28T12:18:52.159Z,2.10
2023-03-28T12:21:38.779Z,1.97
2023-03-28T12:24:57.108Z,2.50
2023-03-28T12:28:12.586Z,2.07
2023-03-28T12:31:11.642Z,2.20
2023-03-28T12:34:14.591Z,1.70
2023-03-28T12:37:29.954Z,1.63
2023-03-28T12:40:27.877Z,1.67
2023-03-28T12:42:59.857Z,1.73
2023-03-28T12:45:38.192Z,2.00
2023-03-28T12:48:41.963Z,1.87
2023-03-28T12:51:32.020Z,2.23
2023-03-28T12:54:15.642Z,2.17
2023-03-28T12:56:47.902Z,1.90
2023-03-28T13:00:07.124Z,1.73
2023-03-28T13:03:16.240Z,1.70
2023-03-28T13:06:42.035Z,1.70
2023-03-28T13:09:40.388Z,2.00
2023-03-28T13:12:40.173Z,1.83
2023-03-28T13:15:13.090Z,1.90
2023-03-28T13:18:19.989Z,1.90
2023-03-28T13:20:53.310Z,2.20
2023-03-28T13:23:36.614Z,2.50
2023-03-28T13:26:06.889Z,2.13
2023-03-28T13:28:48.699Z,2.37
2023-03-28T13:31:24.148Z,1.70
2023-03-28T13:34:02.509Z,1.83
2023-03-28T13:36:35.349Z,1.80
2023-03-28T13:39:13.916Z,1.77
2023-03-28T13:41:46.875Z,1.80
2023-03-28T13:44:21.105Z,2.37
2023-03-28T13:46:52.461Z,1.70
2023-03-28T13:49:29.551Z,1.57
2023-03-28T13:52:22.943Z,1.70
2023-03-28T13:54:53.917Z,1.93
2023-03-28T13:57:26.322Z,1.80
2023-03-28T14:00:01.281Z,1.53
2023-03-28T14:02:41.268Z,2.43
2023-03-28T14:05:28.451Z,1.90
2023-03-28T14:08:21.338Z,1.90
2023-03-28T14:10:52.071Z,2.47
2023-03-28T14:13:29.978Z,2.13
2023-03-28T14:15:57.284Z,1.87
2023-03-28T14:18:36.919Z,1.70
2023-03-28T14:21:07.497Z,1.80
2023-03-28T14:23:57.464Z,1.63
2023-03-28T14:26:30.862Z,1.60
2023-03-28T14:29:15.686Z,2.40
2023-03-28T14:31:46.788Z,2.20
2023-03-28T14:34:30.377Z,1.93
2023-03-28T14:37:14.465Z,1.43
2023-03-28T14:39:42.157Z,1.60
2023-03-28T14:42:16.907Z,1.83
2023-03-28T14:44:52.303Z,1.90
2023-03-28T14:47:33.125Z,1.90
2023-03-28T14:50:01.970Z,2.10
2023-03-28T14:52:36.392Z,1.70
2023-03-28T14:55:05.721Z,2.00
2023-03-28T14:57:34.640Z,2.53
2023-03-28T15:00:02.951Z,2.20
2023-03-28T15:02:41.346Z,2.17
2023-03-28T15:05:20.622Z,2.30
2023-03-28T15:08:01.903Z,1.87
2023-03-28T15:10:30.822Z,1.70
2023-03-28T15:13:09.179Z,1.70
2023-03-28T15:15:44.985Z,2.13
2023-03-28T15:18:25.027Z,1.80
2023-03-28T15:21:01.681Z,2.00
2023-03-28T15:23:50.184Z,2.00
2023-03-28T15:26:37.963Z,2.00
2023-03-28T15:29:09.287Z,2.47
2023-03-28T15:31:41.228Z,2.27
2023-03-28T15:34:25.806Z,1.60
2023-03-28T15:37:02.234Z,1.53
2023-03-28T15:39:35.088Z,1.47
2023-03-28T15:42:22.544Z,1.80
2023-03-28T15:45:20.804Z,1.67
2023-03-28T15:47:55.922Z,2.07
2023-03-28T15:50:53.249Z,1.73
2023-03-28T15:53:25.341Z,1.90
2023-03-28T15:55:52.512Z,2.50
2023-03-28T15:58:23.081Z,2.00
2023-03-28T16:00:54.583Z,1.63
2023-03-28T16:03:21.502Z,1.60
2023-03-28T16:06:09.892Z,1.83
2023-03-28T16:08:44.733Z,1.57
2023-03-28T16:11:23.294Z,1.87
2023-03-28T16:13:51.046Z,2.00
2023-03-28T16:16:29.874Z,1.93
2023-03-28T16:18:56.745Z,1.97
2023-03-28T16:21:23.833Z,1.77
2023-03-28T16:23:50.703Z,1.90
2023-03-28T16:26:17.618Z,1.90
2023-03-28T16:28:44.564Z,2.20
2023-03-28T16:31:15.599Z,2.07
2023-03-28T16:33:42.492Z,2.10
2023-03-28T16:36:13.272Z,1.57
2023-03-28T16:38:40.381Z,2.27
2023-03-28T16:41:07.875Z,1.60
2023-03-28T16:43:35.016Z,1.60
2023-03-28T16:46:02.566Z,1.90
2023-03-28T16:48:31.905Z,1.80
2023-03-28T16:51:05.105Z,1.43
2023-03-28T16:53:35.103Z,1.93
2023-03-28T16:56:02.521Z,1.60
2023-03-28T16:58:30.389Z,2.40
2023-03-28T17:00:57.606Z,1.77
2023-03-28T17:03:24.718Z,1.43
2023-03-28T17:05:51.703Z,1.90
2023-03-28T17:08:18.608Z,2.13
2023-03-28T17:10:47.297Z,1.50
2023-03-28T17:13:14.181Z,2.00
2023-03-28T17:15:42.094Z,2.00
2023-03-28T17:18:10.001Z,1.70
2023-03-28T17:20:37.011Z,1.80
2023-03-28T17:23:04.013Z,1.57
2023-03-28T17:25:33.464Z,1.87
2023-03-28T17:28:04.101Z,1.53
2023-03-28T17:30:31.915Z,1.90
2023-03-28T17:32:58.866Z,1.97
2023-03-28T17:35:25.849Z,1.80
2023-03-28T17:37:52.844Z,1.47
2023-03-28T17:40:19.822Z,1.80
2023-03-28T17:42:46.718Z,1.80
2023-03-28T17:45:13.606Z,1.60
2023-03-28T17:47:40.512Z,1.80
2023-03-28T17:50:08.553Z,1.80
2023-03-28T17:52:37.537Z,1.90
2023-03-28T17:55:06.177Z,2.23
2023-03-28T17:57:33.153Z,2.70
2023-03-28T18:00:02.060Z,2.93
2023-03-28T18:02:29.329Z,5.83
2023-03-28T18:04:56.515Z,7.93
2023-03-28T18:07:23.399Z,7.47
2023-03-28T18:09:50.326Z,10.10
2023-03-28T18:12:18.614Z,6.77
2023-03-28T18:14:45.941Z,4.90
2023-03-28T18:17:12.812Z,4.60
2023-03-28T18:19:39.678Z,3.53
2023-03-28T18:22:06.636Z,3.75
2023-03-28T18:24:34.048Z,4.57
2023-03-28T18:27:01.495Z,5.30
2023-03-28T18:29:28.420Z,5.65
2023-03-28T18:31:55.415Z,4.35
2023-03-28T18:34:22.397Z,11.60
2023-03-28T18:36:49.392Z,10.07
2023-03-28T18:39:16.795Z,10.57
2023-03-28T18:41:43.689Z,6.20
2023-03-28T18:44:11.161Z,6.50
2023-03-28T18:46:38.052Z,5.50
2023-03-28T18:49:06.445Z,7.35
2023-03-28T18:51:42.447Z,5.93
2023-03-28T18:54:09.377Z,4.93
2023-03-28T18:56:36.403Z,3.92
2023-03-28T18:59:03.936Z,3.05
2023-03-28T19:01:31.456Z,3.30
2023-03-28T19:03:58.450Z,4.43
2023-03-28T19:06:25.370Z,4.57
2023-03-28T19:08:52.260Z,2.65
2023-03-28T19:11:19.655Z,2.90
2023-03-28T19:13:46.807Z,2.55
2023-03-28T19:16:18.392Z,2.30
2023-03-28T19:18:47.225Z,3.10
2023-03-28T19:21:16.803Z,3.60
2023-03-28T19:23:44.086Z,3.08
2023-03-28T19:26:13.795Z,4.50
2023-03-28T19:28:41.857Z,5.00
2023-03-28T19:31:13.129Z,4.00
2023-03-28T19:33:41.052Z,3.35
2023-03-28T19:36:10.268Z,3.63
2023-03-28T19:38:39.052Z,3.70
2023-03-28T19:41:20.468Z,4.57
2023-03-28T19:43:48.640Z,3.85
2023-03-28T19:46:32.596Z,3.38
2023-03-28T19:49:06.179Z,3.10
2023-03-28T19:51:35.125Z,3.15
2023-03-28T19:54:02.481Z,4.25
2023-03-28T19:56:29.842Z,3.70
2023-03-28T19:58:56.775Z,2.13
2023-03-28T20:01:23.839Z,2.88
2023-03-28T20:03:53.118Z,2.10
2023-03-28T20:06:22.864Z,2.38
2023-03-28T20:08:50.798Z,2.60
2023-03-28T20:11:18.296Z,2.30
2023-03-28T20:13:45.762Z,3.08
2023-03-28T20:16:14.868Z,2.38
2023-03-28T20:18:42.311Z,1.80
2023-03-28T20:21:13.032Z,2.38
2023-03-28T20:23:41.193Z,1.98
2023-03-28T20:26:25.772Z,2.45
2023-03-28T20:28:59.238Z,3.40
2023-03-28T20:31:27.862Z,2.42
2023-03-28T20:33:56.759Z,2.40
2023-03-28T20:36:24.132Z,3.20
2023-03-28T20:38:51.362Z,2.42
2023-03-28T20:41:24.451Z,2.72
2023-03-28T20:43:53.061Z,1.92
2023-03-28T20:46:20.929Z,2.65
2023-03-28T20:48:52.901Z,2.83
2023-03-28T20:51:22.587Z,2.10
2023-03-28T20:53:56.832Z,2.80
2023-03-28T20:56:25.508Z,2.35
2023-03-28T20:58:52.996Z,2.78
2023-03-28T21:01:25.191Z,3.15
2023-03-28T21:03:59.688Z,2.75
2023-03-28T21:06:36.413Z,3.40
2023-03-28T21:09:12.202Z,2.50
2023-03-28T21:11:39.941Z,2.78
2023-03-28T21:14:12.919Z,2.60
2023-03-28T21:16:40.368Z,2.47
2023-03-28T21:19:07.608Z,3.53
2023-03-28T21:21:34.722Z,2.72
2023-03-28T21:24:04.691Z,2.42
2023-03-28T21:26:31.992Z,2.95
2023-03-28T21:28:59.267Z,2.83
2023-03-28T21:31:29.200Z,3.95
2023-03-28T21:33:58.754Z,2.60
2023-03-28T21:36:27.752Z,2.85
2023-03-28T21:38:56.537Z,2.33
2023-03-28T21:41:24.016Z,3.00
2023-03-28T21:43:53.501Z,2.50
2023-03-28T21:46:22.698Z,2.42
2023-03-28T21:48:49.816Z,3.00
2023-03-28T21:51:18.099Z,2.17
2023-03-28T21:53:46.129Z,2.40
2023-03-28T21:56:14.758Z,2.50
2023-03-28T21:58:41.911Z,3.17
2023-03-28T22:01:14.612Z,2.97
2023-03-28T22:03:41.914Z,2.67
2023-03-28T22:06:09.708Z,3.00
2023-03-28T22:08:36.608Z,2.95
2023-03-28T22:11:17.368Z,2.65
2023-03-28T22:13:47.116Z,3.80
2023-03-28T22:16:16.097Z,2.80
2023-03-28T22:18:49.446Z,3.20
2023-03-28T22:21:17.238Z,2.45
2023-03-28T22:23:47.264Z,3.03
2023-03-28T22:26:14.717Z,3.20
2023-03-28T22:28:41.741Z,2.50
2023-03-28T22:31:09.070Z,3.08
2023-03-28T22:33:36.888Z,3.60
2023-03-28T22:36:04.666Z,3.05
2023-03-28T22:38:31.536Z,3.10
2023-03-28T22:40:58.583Z,3.13
2023-03-28T22:43:25.525Z,2.63
2023-03-28T22:45:52.460Z,2.45
2023-03-28T22:48:20.086Z,2.90
2023-03-28T22:50:47.552Z,3.10
2023-03-28T22:53:15.182Z,3.22
2023-03-28T22:55:43.960Z,2.80
2023-03-28T22:58:12.371Z,2.97
2023-03-28T23:00:39.638Z,2.33
2023-03-28T23:03:07.770Z,3.20
2023-03-28T23:05:35.053Z,3.33
2023-03-28T23:08:01.980Z,3.47
2023-03-28T23:10:31.978Z,2.50
2023-03-28T23:13:00.173Z,2.85
2023-03-28T23:15:28.123Z,2.90
2023-03-28T23:17:56.279Z,2.95
2023-03-28T23:20:24.582Z,4.30
2023-03-28T23:22:51.498Z,3.35
2023-03-28T23:25:19.504Z,2.60
2023-03-28T23:27:46.937Z,2.35
2023-03-28T23:30:16.123Z,2.78
2023-03-28T23:32:43.767Z,2.80
2023-03-28T23:35:11.807Z,3.25
2023-03-28T23:37:40.079Z,2.60
2023-03-28T23:40:14.156Z,3.13
2023-03-28T23:42:43.816Z,2.78
2023-03-28T23:45:14.562Z,2.60
2023-03-28T23:47:43.957Z,3.20
2023-03-28T23:50:11.991Z,2.20
2023-03-28T23:52:39.697Z,2.78
2023-03-28T23:55:08.461Z,2.88
2023-03-28T23:57:35.402Z,2.83
